Latham, NY

10:56 AM EDT on August 27, 2014 (GMT -0400)
Albany International | Change Station
CLOSE
Current Station
Airport
Location: Albany,
Elevation: 292 ft
Nearby Weather Stations

Elev 292 ft 42.75 °N, 73.80 °W | Updated 5 minutes ago

Mostly Cloudy
Mostly Cloudy
79 °F
Feels Like 79 °F
N
6
Wind Variable Wind from South

Today
High -- | Low -- °F
--% Chance of Precip.
Yesterday
High -- | Low -- °F
Precip. -- in
6:14 AM 7:38 PM
Waxing Crescent, 4% visible
Pressure 29.98 in
Visibility 10.0 miles
Clouds Mostly Cloudy 2700 ft
Mostly Cloudy 15000 ft
Mostly Cloudy 26000 ft
Dew Point 65 °F
Humidity 62%
Rainfall 0.00 in
Snow Depth Not available.
UV 4 out of 12
Pollen 9.40 out of 12
PM2.5 Moderate
Flu Activity Not available.
METAR KALB 271451Z 18005KT 10SM BKN027 BKN150 BKN260 26/18 A2999 RMK AO2 SLP152 BKN027 V SCT SCSL ALQDS T02610183 58007

More Conditions Fewer Conditions

Pressure 29.98 in
Visibility 10.0 miles
Clouds Mostly Cloudy 2700 ft
Mostly Cloudy 15000 ft
Mostly Cloudy 26000 ft
Dew Point 65 °F
Humidity 62%
Rainfall 0.00 in
Snow Depth Not available.
UV 4 out of 12
Pollen 9.40 out of 12
PM2.5 Moderate
Flu Activity Not available.
METAR KALB 271451Z 18005KT 10SM BKN027 BKN150 BKN260 26/18 A2999 RMK AO2 SLP152 BKN027 V SCT SCSL ALQDS T02610183 58007

More Conditions Fewer Conditions

10-Day Weather Forecast

Almanac

Astronomy

Aug. 27, 2014 Rise Set
Actual Time 6:14 AM EDT 7:38 PM EDT
Civil Twilight 5:45 AM EDT 8:07 PM EDT
Nautical Twilight 5:09 AM EDT 8:42 PM EDT
Astronomical Twilight 4:31 AM EDT 9:20 PM EDT
Moon 8:11 AM EDT 8:24 PM EDT
Length of Visible Light 14h 22m
Length of Day
13h 23m
Tomorrow will be 2m 45s shorter.
Waxing Crescent, 4% of the Moon is Illuminated
Today
Waxing Crescent
Sep 2
First Quarter
Sep 8
Full
Sep 15
Last Quarter
Sep 24
New

Today's Extremes

State Highs State Lows

Community

WunderPhotos

Upload Photos

1,747,701 photos uploaded!

Nearby

Air Quality

  Air Quality AQ Index Pollutant
Yesterday Moderate
OZONE
Yesterday Moderate
PM2.5
Current Moderate
PM2.5
Wednesday Good
OZONE
Wednesday Good
PM2.5

Snow Depth

Station Depth Elevation
No new snow has been reported.

Earthquake Activity

City Distance Mag. Time & Date
No recent earthquake activity has been reported nearby.
Minimum magnitude displayed is 2.5.

Coastal Water Temperatures

Place Temperature
No Stations Reporting

Nearby Weather Stations